Harare, Zimbabwe
Current Conditions -  °F | °C
As of 6:00 PM on Saturday 25 Oct 2014 (Local Time) from FVHA Reporting Station
Broken Clouds Broken Clouds  
Wind Chill: 22°   Ceiling: 8000
Heat Index: 22°   Visibility: 6mi
Dew Point: 14°   Wind: 10mph
Humidity: 60%   Direction: 180°S
Pressure: 30.15"   Gusts: NA
Location:  17.82°S, 31.05°E
Report Text: FVHA 251600Z 18009KT 140V210 9999 FEW050CB BKN080 22/14 Q1021 RETS NOSIG
Loading
Personal Weather Stations






























Interactive Weather Map
Tropical Storm Tracking
New forecast layout! Learn more

10-Day Weather Forecast

Advertisements
Track Severe Weather on mobile